Time;durP1;ratioP1;P1;durP2;ratioP2;P2;SDS_P1;SDS_P2;PMS_P1;PMS_P2;Temp;Humidity;BMP_temperature;BMP_pressure;BME280_temperature;BME280_humidity;BME280_pressure;Samples;Min_cycle;Max_cycle;Signal;HPM_P1;HPM_P2
2023/01/26 00:01:08;;;;;;;;;;;0.20;99.90;;;;;;4970299;28;19926;-70
2023/01/26 00:03:35;;;;;;;;;;;0.10;99.90;;;;;;4971879;28;20349;-70
2023/01/26 00:06:03;;;;;;;;;;;0.10;99.90;;;;;;4970070;28;19926;-69
2023/01/26 00:08:30;;;;;;;;;;;0.10;99.90;;;;;;4970233;28;19926;-69
2023/01/26 00:10:58;;;;;;;;;;;0.20;99.90;;;;;;4972479;28;19926;-70
2023/01/26 00:13:24;;;;;;;;;;;0.20;99.90;;;;;;4970893;28;20507;-69
2023/01/26 00:15:51;;;;;;;;;;;0.20;99.90;;;;;;4971470;28;19933;-70
2023/01/26 00:18:18;;;;;;;;;;;0.20;99.90;;;;;;4971713;28;19926;-70
2023/01/26 00:20:44;;;;;;;;;;;0.20;99.90;;;;;;4971000;28;19979;-70
2023/01/26 00:23:11;;;;;;;;;;;0.20;99.90;;;;;;4972059;28;20336;-69
2023/01/26 00:25:39;;;;;;;;;;;0.20;99.90;;;;;;4970910;28;19930;-70
2023/01/26 00:28:07;;;;;;;;;;;0.30;99.90;;;;;;4971592;28;20357;-70
2023/01/26 00:30:34;;;;;;;;;;;0.30;99.90;;;;;;4970852;28;20013;-70
2023/01/26 00:33:01;;;;;;;;;;;0.30;99.90;;;;;;4970865;28;19931;-70
2023/01/26 00:35:28;;;;;;;;;;;0.30;99.90;;;;;;4969036;28;19933;-69
2023/01/26 00:37:55;;;;;;;;;;;0.30;99.90;;;;;;4971046;28;19930;-69
2023/01/26 00:40:21;;;;;;;;;;;0.30;99.90;;;;;;4971564;28;19926;-69
2023/01/26 00:42:53;;;;;;;;;;;0.30;99.90;;;;;;4971038;28;19926;-69
2023/01/26 00:45:21;;;;;;;;;;;0.30;99.90;;;;;;4971769;28;19979;-69
2023/01/26 00:47:48;;;;;;;;;;;0.30;99.90;;;;;;4970370;28;20035;-69
2023/01/26 00:50:15;;;;;;;;;;;0.30;99.90;;;;;;4971825;28;19936;-69
2023/01/26 00:52:42;;;;;;;;;;;0.30;99.90;;;;;;4970618;28;19972;-69
2023/01/26 00:55:09;;;;;;;;;;;0.30;99.90;;;;;;4971629;28;20011;-69
2023/01/26 00:57:36;;;;;;;;;;;0.30;99.90;;;;;;4971329;28;19927;-69
2023/01/26 01:00:02;;;;;;;;;;;0.20;99.90;;;;;;4969989;28;20371;-69
2023/01/26 01:02:31;;;;;;;;;;;0.20;99.90;;;;;;4969495;28;20296;-69
2023/01/26 01:04:58;;;;;;;;;;;0.30;99.90;;;;;;4970628;28;19972;-69
2023/01/26 01:07:25;;;;;;;;;;;0.30;99.90;;;;;;4968425;28;20335;-69
2023/01/26 01:09:55;;;;;;;;;;;0.20;99.90;;;;;;4970263;28;19933;-69
2023/01/26 01:12:21;;;;;;;;;;;0.20;99.90;;;;;;4970716;28;19926;-69
2023/01/26 01:14:48;;;;;;;;;;;0.20;99.90;;;;;;4971012;28;19926;-69
2023/01/26 01:17:15;;;;;;;;;;;0.30;99.90;;;;;;4969939;28;19926;-69
2023/01/26 01:19:43;;;;;;;;;;;0.30;99.90;;;;;;4970356;28;19926;-70
2023/01/26 01:22:10;;;;;;;;;;;0.30;99.90;;;;;;4968880;28;19926;-69
2023/01/26 01:24:36;;;;;;;;;;;0.30;99.90;;;;;;4971180;28;20004;-69
2023/01/26 01:27:03;;;;;;;;;;;0.30;99.90;;;;;;4970690;28;19965;-69
2023/01/26 01:29:30;;;;;;;;;;;0.30;99.90;;;;;;4970541;28;19979;-69
2023/01/26 01:31:57;;;;;;;;;;;0.30;99.90;;;;;;4969608;28;19930;-69
2023/01/26 01:34:24;;;;;;;;;;;0.30;99.90;;;;;;4962046;28;19930;-71
2023/01/26 01:36:52;;;;;;;;;;;0.20;99.90;;;;;;4970111;28;20036;-70
2023/01/26 01:39:18;;;;;;;;;;;0.20;99.90;;;;;;4970533;28;19926;-70
2023/01/26 01:41:45;;;;;;;;;;;0.20;99.90;;;;;;4970359;28;19926;-68
2023/01/26 01:44:13;;;;;;;;;;;0.20;99.90;;;;;;4970097;28;20016;-69
2023/01/26 01:46:42;;;;;;;;;;;0.20;99.90;;;;;;4969662;28;19934;-69
2023/01/26 01:49:16;;;;;;;;;;;0.20;99.90;;;;;;4970039;28;19926;-69
2023/01/26 01:51:44;;;;;;;;;;;0.20;99.90;;;;;;4963958;28;20466;-69
2023/01/26 01:54:15;;;;;;;;;;;0.20;99.90;;;;;;4970216;28;19926;-69
2023/01/26 01:56:43;;;;;;;;;;;0.20;99.90;;;;;;4970270;28;20409;-69
2023/01/26 01:59:11;;;;;;;;;;;0.30;99.90;;;;;;4974480;28;19988;-69
2023/01/26 02:01:38;;;;;;;;;;;0.30;99.90;;;;;;4969103;28;19984;-69
2023/01/26 02:04:06;;;;;;;;;;;0.20;99.90;;;;;;4957261;28;19926;-69
2023/01/26 02:06:34;;;;;;;;;;;0.20;99.90;;;;;;4965727;28;19931;-69
2023/01/26 02:09:02;;;;;;;;;;;0.20;99.90;;;;;;4968911;28;19934;-70
2023/01/26 02:11:36;;;;;;;;;;;0.30;99.90;;;;;;4976151;28;20000;-70
2023/01/26 02:14:04;;;;;;;;;;;0.30;99.90;;;;;;4976432;28;20008;-70
2023/01/26 02:16:31;;;;;;;;;;;0.30;99.90;;;;;;4975592;28;20362;-70
2023/01/26 02:18:58;;;;;;;;;;;0.30;99.90;;;;;;4976347;28;19972;-70
2023/01/26 02:21:25;;;;;;;;;;;0.40;99.90;;;;;;4974864;28;19973;-71
2023/01/26 02:24:03;;;;;;;;;;;0.40;99.90;;;;;;4970370;28;19972;-70
2023/01/26 02:26:32;;;;;;;;;;;0.40;99.90;;;;;;4975164;28;19969;-69
2023/01/26 02:28:59;;;;;;;;;;;0.40;99.90;;;;;;4976083;28;19926;-70
2023/01/26 02:31:26;;;;;;;;;;;0.40;99.90;;;;;;4976194;28;20444;-70
2023/01/26 02:33:53;;;;;;;;;;;0.50;99.90;;;;;;4976947;28;19933;-70
2023/01/26 02:36:22;;;;;;;;;;;0.50;99.90;;;;;;4974707;28;19969;-70
2023/01/26 02:38:51;;;;;;;;;;;0.50;99.90;;;;;;4975782;28;19926;-70
2023/01/26 02:42:37;;;;;;;;;;;0.50;99.90;;;;;;4975813;28;20322;-70
2023/01/26 02:44:07;;;;;;;;;;;0.60;99.90;;;;;;4976269;28;19930;-69
2023/01/26 02:46:34;;;;;;;;;;;0.60;99.90;;;;;;4976068;28;19926;-69
2023/01/26 02:51:45;;;;;;;;;;;0.60;99.90;;;;;;4974105;28;19942;-70
2023/01/26 02:55:21;;;;;;;;;;;0.60;99.90;;;;;;4975706;28;19927;-70
2023/01/26 02:56:58;;;;;;;;;;;0.50;99.90;;;;;;4975618;28;19935;-70
2023/01/26 02:59:26;;;;;;;;;;;0.60;99.90;;;;;;4968043;28;19934;-70
2023/01/26 03:01:54;;;;;;;;;;;0.60;99.90;;;;;;4974974;28;20023;-71
2023/01/26 03:04:21;;;;;;;;;;;0.60;99.90;;;;;;4975959;28;19981;-70
2023/01/26 03:06:51;;;;;;;;;;;0.60;99.90;;;;;;4974771;28;20021;-70
2023/01/26 03:09:17;;;;;;;;;;;0.60;99.90;;;;;;4973732;28;20034;-70
2023/01/26 03:11:44;;;;;;;;;;;0.60;99.90;;;;;;4971512;28;19995;-70
2023/01/26 03:14:11;;;;;;;;;;;0.60;99.90;;;;;;4972643;28;20023;-70
2023/01/26 03:16:40;;;;;;;;;;;0.60;99.90;;;;;;4971039;28;19926;-70
2023/01/26 03:27:26;;;;;;;;;;;0.50;99.90;;;;;;4971532;28;19945;-70
2023/01/26 03:29:53;;;;;;;;;;;0.50;99.90;;;;;;4972019;28;20339;-69
2023/01/26 03:32:21;;;;;;;;;;;0.40;99.90;;;;;;4971218;28;20024;-70
2023/01/26 03:34:47;;;;;;;;;;;0.40;99.90;;;;;;4970873;28;19984;-69
2023/01/26 03:37:14;;;;;;;;;;;0.50;99.90;;;;;;4970127;28;19926;-69
2023/01/26 03:56:19;;;;;;;;;;;0.50;99.90;;;;;;5031117;28;19932;-70
2023/01/26 03:58:46;;;;;;;;;;;0.50;99.90;;;;;;5030508;28;20318;-70
2023/01/26 04:01:18;;;;;;;;;;;0.60;99.90;;;;;;4970483;28;19938;-70
2023/01/26 04:09:17;;;;;;;;;;;0.60;99.90;;;;;;4971620;28;20407;-70
2023/01/26 04:11:43;;;;;;;;;;;0.60;99.90;;;;;;4972330;28;19926;-70
2023/01/26 04:22:25;;;;;;;;;;;0.60;99.90;;;;;;4967569;28;19932;-70
2023/01/26 04:24:52;;;;;;;;;;;0.60;99.90;;;;;;4951961;28;20361;-68
2023/01/26 04:27:19;;;;;;;;;;;0.70;99.90;;;;;;4951937;28;19927;-68
2023/01/26 04:29:45;;;;;;;;;;;0.70;99.90;;;;;;4964886;28;19926;-68
2023/01/26 04:32:12;;;;;;;;;;;0.70;99.90;;;;;;4971409;28;19930;-69
2023/01/26 04:34:39;;;;;;;;;;;0.70;99.90;;;;;;4971064;28;19932;-69
2023/01/26 04:37:08;;;;;;;;;;;0.70;99.90;;;;;;4967480;28;19956;-69
2023/01/26 04:39:35;;;;;;;;;;;0.70;99.90;;;;;;4964593;28;20348;-69
2023/01/26 04:42:01;;;;;;;;;;;0.70;99.90;;;;;;4963375;28;19962;-69
2023/01/26 04:44:28;;;;;;;;;;;0.70;99.90;;;;;;4971381;28;19926;-68
2023/01/26 04:46:55;;;;;;;;;;;0.70;99.90;;;;;;4971349;28;20344;-68
2023/01/26 04:49:22;;;;;;;;;;;0.70;99.90;;;;;;4970625;28;19926;-69
2023/01/26 04:51:48;;;;;;;;;;;0.70;99.90;;;;;;4970025;28;20021;-68
2023/01/26 04:54:16;;;;;;;;;;;0.70;99.90;;;;;;4971851;28;20278;-68
2023/01/26 04:56:43;;;;;;;;;;;0.70;99.90;;;;;;4967004;28;20021;-68
2023/01/26 04:59:10;;;;;;;;;;;0.70;99.90;;;;;;4959310;28;20393;-68
2023/01/26 05:01:37;;;;;;;;;;;0.70;99.90;;;;;;4971277;28;20356;-68
2023/01/26 05:04:05;;;;;;;;;;;0.80;99.90;;;;;;4970184;28;20009;-68
2023/01/26 05:06:32;;;;;;;;;;;0.80;99.90;;;;;;4970394;28;19937;-68
2023/01/26 05:09:05;;;;;;;;;;;0.80;99.90;;;;;;4970095;28;19926;-69
2023/01/26 05:11:33;;;;;;;;;;;0.80;99.90;;;;;;4970797;28;19926;-69
2023/01/26 05:14:00;;;;;;;;;;;0.80;99.90;;;;;;4967712;28;20039;-69
2023/01/26 05:16:27;;;;;;;;;;;0.80;99.90;;;;;;4970915;28;19932;-69
2023/01/26 05:18:54;;;;;;;;;;;0.80;99.90;;;;;;4970161;28;20377;-69
2023/01/26 05:21:23;;;;;;;;;;;0.80;99.90;;;;;;4969533;28;20025;-69
2023/01/26 05:23:50;;;;;;;;;;;0.80;99.90;;;;;;4968800;28;19926;-68
2023/01/26 05:26:17;;;;;;;;;;;0.80;99.90;;;;;;4970498;28;20161;-69
2023/01/26 05:28:47;;;;;;;;;;;0.80;99.90;;;;;;4970557;28;19927;-69
2023/01/26 05:31:14;;;;;;;;;;;0.80;99.90;;;;;;4962042;28;19956;-70
2023/01/26 05:33:40;;;;;;;;;;;0.80;99.90;;;;;;4963092;28;19926;-70
2023/01/26 05:36:07;;;;;;;;;;;0.90;99.90;;;;;;4968757;28;19934;-70
2023/01/26 05:38:34;;;;;;;;;;;0.90;99.90;;;;;;4968923;28;19926;-70
2023/01/26 05:41:01;;;;;;;;;;;0.90;99.90;;;;;;4969052;28;19930;-69
2023/01/26 05:43:31;;;;;;;;;;;0.90;99.90;;;;;;4971005;28;19973;-71
2023/01/26 05:46:02;;;;;;;;;;;0.90;99.90;;;;;;4968843;28;19926;-68
2023/01/26 05:48:32;;;;;;;;;;;0.90;99.90;;;;;;4969339;28;20023;-69
2023/01/26 05:51:04;;;;;;;;;;;1.00;99.90;;;;;;4970467;28;20020;-68
2023/01/26 05:53:31;;;;;;;;;;;0.90;99.90;;;;;;4959774;28;19927;-70
2023/01/26 05:55:58;;;;;;;;;;;1.00;99.90;;;;;;4968060;28;19926;-67
2023/01/26 05:58:24;;;;;;;;;;;0.90;99.90;;;;;;4969422;28;19926;-69
2023/01/26 06:00:52;;;;;;;;;;;0.90;99.90;;;;;;4969886;28;20308;-69
2023/01/26 06:03:21;;;;;;;;;;;0.90;99.90;;;;;;4966801;28;19926;-69
2023/01/26 06:05:52;;;;;;;;;;;1.00;99.90;;;;;;4969116;28;20381;-70
2023/01/26 06:08:19;;;;;;;;;;;1.10;99.90;;;;;;4968703;28;19926;-70
2023/01/26 06:10:46;;;;;;;;;;;1.00;99.90;;;;;;4967451;28;19977;-69
2023/01/26 06:13:12;;;;;;;;;;;1.00;99.90;;;;;;4969436;28;19977;-70
2023/01/26 06:15:39;;;;;;;;;;;1.00;99.90;;;;;;4969251;28;20017;-70
2023/01/26 06:18:06;;;;;;;;;;;0.90;99.90;;;;;;4969935;28;20017;-70
2023/01/26 06:20:34;;;;;;;;;;;0.90;99.90;;;;;;4967063;28;19981;-70
2023/01/26 06:23:01;;;;;;;;;;;0.80;99.90;;;;;;4967273;28;20017;-70
2023/01/26 06:25:31;;;;;;;;;;;0.80;99.90;;;;;;4969333;28;20345;-69
2023/01/26 06:27:58;;;;;;;;;;;0.80;99.90;;;;;;4968200;28;19930;-68
2023/01/26 06:30:25;;;;;;;;;;;0.80;99.90;;;;;;4968450;28;19926;-68
2023/01/26 06:32:52;;;;;;;;;;;0.70;99.90;;;;;;4967586;28;19930;-68
2023/01/26 06:35:19;;;;;;;;;;;0.60;99.90;;;;;;4965198;28;19930;-69
2023/01/26 06:37:50;;;;;;;;;;;0.60;99.90;;;;;;4968355;28;19952;-68
2023/01/26 06:40:20;;;;;;;;;;;0.70;99.90;;;;;;4967118;28;20465;-69
2023/01/26 06:42:47;;;;;;;;;;;0.80;99.90;;;;;;4958825;28;19927;-69
2023/01/26 06:45:14;;;;;;;;;;;0.90;99.90;;;;;;4968142;28;20024;-69
2023/01/26 06:47:44;;;;;;;;;;;0.90;99.90;;;;;;4971905;28;19969;-69
2023/01/26 06:50:11;;;;;;;;;;;1.00;99.90;;;;;;4971258;28;19969;-68
2023/01/26 06:52:41;;;;;;;;;;;1.00;99.90;;;;;;4969848;28;20331;-69
2023/01/26 06:55:15;;;;;;;;;;;1.00;99.90;;;;;;4969297;28;19926;-69
2023/01/26 06:57:41;;;;;;;;;;;1.00;99.90;;;;;;4964979;28;20324;-69
2023/01/26 07:00:09;;;;;;;;;;;1.00;99.90;;;;;;4966208;28;20037;-69
2023/01/26 07:02:36;;;;;;;;;;;1.00;99.90;;;;;;4969819;28;19926;-69
2023/01/26 07:05:06;;;;;;;;;;;1.00;99.90;;;;;;4971216;28;20177;-69
2023/01/26 07:07:33;;;;;;;;;;;1.10;99.90;;;;;;4972695;28;20572;-70
2023/01/26 07:09:59;;;;;;;;;;;1.20;99.90;;;;;;4968330;28;20020;-70
2023/01/26 07:12:40;;;;;;;;;;;1.20;99.90;;;;;;4964170;28;19926;-69
2023/01/26 07:15:11;;;;;;;;;;;1.20;99.90;;;;;;4968424;28;19936;-69
2023/01/26 07:17:38;;;;;;;;;;;1.20;99.90;;;;;;4966282;28;19973;-69
2023/01/26 07:20:06;;;;;;;;;;;1.20;99.90;;;;;;4970063;28;20029;-69
2023/01/26 07:22:32;;;;;;;;;;;1.30;99.90;;;;;;4972148;28;19976;-69
2023/01/26 07:25:02;;;;;;;;;;;1.30;99.90;;;;;;4971368;28;19949;-70
2023/01/26 07:27:30;;;;;;;;;;;1.30;99.90;;;;;;4970424;28;20021;-69
2023/01/26 07:29:57;;;;;;;;;;;1.30;99.90;;;;;;4967990;28;20632;-68
2023/01/26 07:32:24;;;;;;;;;;;1.30;99.90;;;;;;4969056;28;19927;-69
2023/01/26 07:34:51;;;;;;;;;;;1.30;99.90;;;;;;4970689;28;20040;-69
2023/01/26 07:37:17;;;;;;;;;;;1.30;99.90;;;;;;4971336;28;19974;-68
2023/01/26 07:39:44;;;;;;;;;;;1.20;99.90;;;;;;4968204;28;19937;-70
2023/01/26 07:42:12;;;;;;;;;;;1.20;99.90;;;;;;4970157;28;19927;-70
2023/01/26 07:44:40;;;;;;;;;;;1.20;99.90;;;;;;4970651;28;19980;-69
2023/01/26 07:47:07;;;;;;;;;;;1.20;99.90;;;;;;4968266;28;20223;-69
2023/01/26 07:49:33;;;;;;;;;;;1.20;99.90;;;;;;4970754;28;19930;-71
2023/01/26 07:52:00;;;;;;;;;;;1.20;99.90;;;;;;4969887;28;19932;-71
2023/01/26 07:54:27;;;;;;;;;;;1.30;99.90;;;;;;4970110;28;19934;-71
2023/01/26 07:56:54;;;;;;;;;;;1.30;99.90;;;;;;4968874;28;19992;-70
2023/01/26 07:59:21;;;;;;;;;;;1.30;99.90;;;;;;4964045;28;20427;-71
2023/01/26 08:01:52;;;;;;;;;;;1.30;99.90;;;;;;4962500;28;20385;-69
2023/01/26 08:04:19;;;;;;;;;;;1.30;99.90;;;;;;4963782;28;20300;-71
2023/01/26 08:06:45;;;;;;;;;;;1.40;99.90;;;;;;4967192;28;19926;-71
2023/01/26 08:09:12;;;;;;;;;;;1.30;99.90;;;;;;4963061;28;19927;-71
2023/01/26 08:11:39;;;;;;;;;;;1.40;99.90;;;;;;4963879;28;20003;-71
2023/01/26 08:14:06;;;;;;;;;;;1.40;99.90;;;;;;4969708;28;19953;-71
2023/01/26 08:16:33;;;;;;;;;;;1.40;99.90;;;;;;4971387;28;19937;-71
2023/01/26 08:19:02;;;;;;;;;;;1.40;99.90;;;;;;4976270;28;19930;-71
2023/01/26 08:21:30;;;;;;;;;;;1.40;99.90;;;;;;4958091;28;22492;-72
2023/01/26 08:24:00;;;;;;;;;;;1.50;99.90;;;;;;4967561;28;19995;-73
2023/01/26 08:26:27;;;;;;;;;;;1.50;99.90;;;;;;4964854;28;19931;-72
2023/01/26 08:28:54;;;;;;;;;;;1.60;99.90;;;;;;4967928;28;19926;-72
2023/01/26 08:31:21;;;;;;;;;;;1.60;99.90;;;;;;4966359;28;19926;-71
2023/01/26 08:33:49;;;;;;;;;;;1.50;99.90;;;;;;4968289;28;20452;-72
2023/01/26 08:36:18;;;;;;;;;;;1.50;99.90;;;;;;4965370;28;19930;-73
2023/01/26 08:38:45;;;;;;;;;;;1.60;99.90;;;;;;4992852;28;19926;-72
2023/01/26 08:41:12;;;;;;;;;;;1.60;99.90;;;;;;4978207;28;20087;-73
2023/01/26 08:43:38;;;;;;;;;;;1.80;99.90;;;;;;4981053;28;20015;-73
2023/01/26 08:46:06;;;;;;;;;;;1.80;99.90;;;;;;4966560;28;19999;-74
2023/01/26 08:48:32;;;;;;;;;;;1.80;99.90;;;;;;4964731;28;19970;-72
2023/01/26 08:51:00;;;;;;;;;;;1.80;99.90;;;;;;4990759;28;19932;-73
2023/01/26 08:53:30;;;;;;;;;;;1.80;99.90;;;;;;5033495;28;20011;-72
2023/01/26 08:55:56;;;;;;;;;;;1.80;99.90;;;;;;4966104;28;20045;-74
2023/01/26 08:58:23;;;;;;;;;;;1.90;99.90;;;;;;4966846;28;19930;-72
2023/01/26 09:00:50;;;;;;;;;;;1.90;99.90;;;;;;4968069;28;20062;-72
2023/01/26 09:03:17;;;;;;;;;;;1.90;99.90;;;;;;4967738;28;20047;-72
2023/01/26 09:05:43;;;;;;;;;;;1.90;99.90;;;;;;4967769;28;20247;-72
2023/01/26 09:08:10;;;;;;;;;;;2.00;99.90;;;;;;4967726;28;19975;-74
2023/01/26 09:10:38;;;;;;;;;;;2.00;99.90;;;;;;4965479;28;19930;-72
2023/01/26 09:13:05;;;;;;;;;;;2.00;99.90;;;;;;4965562;28;19926;-72
2023/01/26 09:15:33;;;;;;;;;;;2.10;99.90;;;;;;4984352;28;20022;-73
2023/01/26 09:17:59;;;;;;;;;;;2.10;99.90;;;;;;4970637;28;20461;-73
2023/01/26 09:20:26;;;;;;;;;;;2.20;99.90;;;;;;4969587;28;19980;-73
2023/01/26 09:22:53;;;;;;;;;;;2.20;99.90;;;;;;4961867;28;20234;-73
2023/01/26 09:25:20;;;;;;;;;;;2.20;99.90;;;;;;4975345;28;19937;-74
2023/01/26 09:27:48;;;;;;;;;;;2.30;99.90;;;;;;4971341;28;19926;-73
2023/01/26 09:30:15;;;;;;;;;;;2.30;99.90;;;;;;4967170;28;20441;-74
2023/01/26 09:32:42;;;;;;;;;;;2.30;99.90;;;;;;4970686;28;20360;-73
2023/01/26 09:35:10;;;;;;;;;;;2.30;99.90;;;;;;4973886;28;19927;-73
2023/01/26 09:37:37;;;;;;;;;;;2.40;99.90;;;;;;4968793;28;20451;-73
2023/01/26 09:40:04;;;;;;;;;;;2.30;99.90;;;;;;4967461;28;19999;-73
2023/01/26 09:42:36;;;;;;;;;;;2.40;99.90;;;;;;4968331;28;19925;-73
2023/01/26 09:45:08;;;;;;;;;;;2.40;99.90;;;;;;4965178;28;20018;-73
2023/01/26 09:47:44;;;;;;;;;;;2.40;99.90;;;;;;4964735;28;19964;-73
2023/01/26 09:50:14;;;;;;;;;;;2.30;99.90;;;;;;4969336;28;20017;-73
2023/01/26 09:52:49;;;;;;;;;;;2.40;99.90;;;;;;4984697;28;19934;-73
2023/01/26 09:55:19;;;;;;;;;;;2.30;99.90;;;;;;4964399;28;19930;-73
2023/01/26 09:57:48;;;;;;;;;;;2.40;99.90;;;;;;4969819;28;19926;-72
2023/01/26 10:00:20;;;;;;;;;;;2.30;99.90;;;;;;4969650;28;20048;-73
2023/01/26 10:02:52;;;;;;;;;;;2.40;99.90;;;;;;4966463;28;19933;-73
2023/01/26 10:05:22;;;;;;;;;;;2.40;99.90;;;;;;4964063;28;20365;-73
2023/01/26 10:07:48;;;;;;;;;;;2.60;99.90;;;;;;4972572;28;19981;-74
2023/01/26 10:10:21;;;;;;;;;;;2.70;99.90;;;;;;4967573;28;19926;-73
2023/01/26 10:12:50;;;;;;;;;;;2.80;99.90;;;;;;4974216;28;19927;-73
2023/01/26 10:15:25;;;;;;;;;;;3.00;99.90;;;;;;4965422;28;19980;-72
2023/01/26 10:17:53;;;;;;;;;;;3.10;99.90;;;;;;4964724;28;19965;-71
2023/01/26 10:20:24;;;;;;;;;;;3.10;99.90;;;;;;4969181;28;19932;-74
2023/01/26 10:22:53;;;;;;;;;;;3.20;99.90;;;;;;4967588;28;20029;-73
2023/01/26 10:25:21;;;;;;;;;;;3.20;99.90;;;;;;4973490;28;19980;-72
2023/01/26 10:27:48;;;;;;;;;;;3.20;99.90;;;;;;4975106;28;20019;-71
2023/01/26 10:30:15;;;;;;;;;;;3.30;99.90;;;;;;4964701;28;19933;-71
2023/01/26 10:32:47;;;;;;;;;;;3.40;99.90;;;;;;4969183;28;19933;-71
2023/01/26 10:35:21;;;;;;;;;;;3.50;99.90;;;;;;4975614;28;19930;-70
2023/01/26 10:37:48;;;;;;;;;;;3.60;99.90;;;;;;4961626;28;19929;-70
2023/01/26 10:40:17;;;;;;;;;;;3.70;99.90;;;;;;4968453;28;19931;-72
2023/01/26 10:42:53;;;;;;;;;;;3.80;99.90;;;;;;4970769;28;19948;-71
2023/01/26 10:45:26;;;;;;;;;;;3.70;99.90;;;;;;4966825;28;20025;-73
2023/01/26 10:48:15;;;;;;;;;;;3.80;99.90;;;;;;4966686;28;19932;-71
2023/01/26 10:50:42;;;;;;;;;;;3.90;99.90;;;;;;4962454;28;19935;-71
2023/01/26 10:53:14;;;;;;;;;;;4.00;99.90;;;;;;4965874;28;19926;-71
2023/01/26 10:55:41;;;;;;;;;;;3.90;99.90;;;;;;4964653;28;19926;-71
2023/01/26 10:58:32;;;;;;;;;;;4.10;99.90;;;;;;4968224;28;20344;-71
2023/01/26 11:00:59;;;;;;;;;;;4.20;99.90;;;;;;4968821;28;19926;-72
2023/01/26 11:03:28;;;;;;;;;;;4.40;99.90;;;;;;4969410;28;19964;-69
2023/01/26 11:06:05;;;;;;;;;;;4.40;99.90;;;;;;4970192;28;20462;-69
2023/01/26 11:08:33;;;;;;;;;;;4.40;99.90;;;;;;4983618;28;19969;-71
2023/01/26 11:11:02;;;;;;;;;;;4.30;99.90;;;;;;4974355;28;19930;-71
2023/01/26 11:13:29;;;;;;;;;;;4.30;99.90;;;;;;4973395;28;19927;-71
2023/01/26 11:16:02;;;;;;;;;;;4.40;99.90;;;;;;4963817;28;19961;-71
2023/01/26 11:18:41;;;;;;;;;;;4.50;99.90;;;;;;4966356;28;19926;-71
2023/01/26 11:21:11;;;;;;;;;;;4.60;99.90;;;;;;4970109;28;20347;-71
2023/01/26 11:23:46;;;;;;;;;;;4.90;99.90;;;;;;4971063;28;20017;-72
2023/01/26 11:26:30;;;;;;;;;;;5.10;99.90;;;;;;4967932;28;20691;-71
2023/01/26 11:29:03;;;;;;;;;;;5.20;99.90;;;;;;4961901;28;19931;-71
2023/01/26 11:31:37;;;;;;;;;;;5.30;99.90;;;;;;4981447;28;19926;-72
2023/01/26 11:34:12;;;;;;;;;;;5.30;99.90;;;;;;4970652;28;19989;-72
2023/01/26 11:36:46;;;;;;;;;;;5.40;99.90;;;;;;4971584;28;19989;-71
2023/01/26 11:39:17;;;;;;;;;;;5.40;99.90;;;;;;4968331;28;19926;-69
2023/01/26 11:41:54;;;;;;;;;;;5.50;99.90;;;;;;4967544;28;19926;-70
2023/01/26 11:44:36;;;;;;;;;;;5.50;99.90;;;;;;4967735;28;19934;-71
2023/01/26 11:47:11;;;;;;;;;;;5.60;99.90;;;;;;4997207;28;19969;-71
2023/01/26 11:49:56;;;;;;;;;;;5.60;99.90;;;;;;4961507;28;19942;-71
2023/01/26 11:52:31;;;;;;;;;;;5.60;99.90;;;;;;4966672;28;20385;-70
2023/01/26 11:55:09;;;;;;;;;;;5.60;99.90;;;;;;4966380;28;20440;-70
2023/01/26 11:57:41;;;;;;;;;;;5.60;99.90;;;;;;4961087;28;19930;-70
2023/01/26 12:00:15;;;;;;;;;;;5.50;99.90;;;;;;4981303;28;19978;-71
2023/01/26 12:02:43;;;;;;;;;;;5.60;99.90;;;;;;4967343;28;19930;-71
2023/01/26 12:05:14;;;;;;;;;;;5.80;99.90;;;;;;4975624;28;19932;-71
2023/01/26 12:07:53;;;;;;;;;;;5.80;99.90;;;;;;4970306;28;19973;-70
2023/01/26 12:10:23;;;;;;;;;;;5.80;99.90;;;;;;4983685;28;19926;-71
2023/01/26 12:12:55;;;;;;;;;;;5.90;99.90;;;;;;4977675;28;19995;-71
2023/01/26 12:15:24;;;;;;;;;;;6.00;99.90;;;;;;4970814;28;19933;-71
2023/01/26 12:17:58;;;;;;;;;;;6.10;99.90;;;;;;4965018;28;19926;-71
2023/01/26 12:20:30;;;;;;;;;;;6.10;99.90;;;;;;4959893;28;20029;-72
2023/01/26 12:23:03;;;;;;;;;;;6.20;99.90;;;;;;4968900;28;19969;-71
2023/01/26 12:25:32;;;;;;;;;;;6.20;99.90;;;;;;4967155;28;19927;-72
2023/01/26 12:28:05;;;;;;;;;;;6.30;99.90;;;;;;4967061;28;19926;-72
2023/01/26 12:30:39;;;;;;;;;;;6.40;99.90;;;;;;4975857;28;20325;-71
2023/01/26 12:33:10;;;;;;;;;;;6.40;99.90;;;;;;4969784;28;19940;-71
2023/01/26 12:36:07;;;;;;;;;;;6.40;99.90;;;;;;4964005;28;20272;-70
2023/01/26 12:38:40;;;;;;;;;;;6.50;99.90;;;;;;5008296;28;20380;-71
2023/01/26 12:41:11;;;;;;;;;;;6.60;99.90;;;;;;4974386;28;19973;-71
2023/01/26 12:43:50;;;;;;;;;;;6.60;99.90;;;;;;4972418;28;19979;-70
2023/01/26 12:46:17;;;;;;;;;;;6.70;99.90;;;;;;4970994;28;19934;-70
2023/01/26 12:48:46;;;;;;;;;;;6.70;99.90;;;;;;4985906;28;19977;-72
2023/01/26 12:51:16;;;;;;;;;;;6.70;99.90;;;;;;4970425;28;20022;-70
2023/01/26 12:53:49;;;;;;;;;;;6.80;99.90;;;;;;4971175;28;20006;-71
2023/01/26 12:56:20;;;;;;;;;;;6.90;99.90;;;;;;4970203;28;20020;-70
2023/01/26 12:58:47;;;;;;;;;;;6.90;99.90;;;;;;4965848;28;20018;-71
2023/01/26 13:01:15;;;;;;;;;;;6.90;99.90;;;;;;4982603;28;19924;-72
2023/01/26 13:03:44;;;;;;;;;;;6.90;99.90;;;;;;4965102;28;19977;-71
2023/01/26 13:06:18;;;;;;;;;;;6.90;99.90;;;;;;4967139;28;19934;-71
2023/01/26 13:08:52;;;;;;;;;;;6.90;99.90;;;;;;4967344;28;19937;-70
2023/01/26 13:11:38;;;;;;;;;;;7.00;99.90;;;;;;4974183;28;20020;-71
2023/01/26 13:14:23;;;;;;;;;;;7.00;99.90;;;;;;4968573;28;19926;-71
2023/01/26 13:16:50;;;;;;;;;;;7.00;99.90;;;;;;4970540;28;20302;-72
2023/01/26 13:19:32;;;;;;;;;;;7.10;99.90;;;;;;4963961;28;19987;-71
2023/01/26 13:21:59;;;;;;;;;;;7.00;99.90;;;;;;4965919;28;20381;-71
2023/01/26 13:24:43;;;;;;;;;;;7.00;99.90;;;;;;4966633;28;19965;-71
2023/01/26 13:27:31;;;;;;;;;;;7.00;99.90;;;;;;4963046;28;19934;-70
2023/01/26 13:29:58;;;;;;;;;;;7.00;99.90;;;;;;4965816;28;19940;-71
2023/01/26 13:32:56;;;;;;;;;;;6.90;99.90;;;;;;4965142;28;20801;-72
2023/01/26 13:35:25;;;;;;;;;;;6.90;99.90;;;;;;4966563;28;19926;-71
2023/01/26 13:37:55;;;;;;;;;;;6.90;99.90;;;;;;4978136;28;19926;-71
2023/01/26 13:40:24;;;;;;;;;;;6.90;99.90;;;;;;4961126;28;19962;-72
2023/01/26 13:42:56;;;;;;;;;;;6.90;99.90;;;;;;4976703;28;20013;-72
2023/01/26 13:45:27;;;;;;;;;;;6.90;99.90;;;;;;4961958;28;19939;-72
2023/01/26 13:47:55;;;;;;;;;;;6.90;99.90;;;;;;4969768;28;19945;-71
2023/01/26 13:50:23;;;;;;;;;;;6.90;99.90;;;;;;4966308;28;19934;-72
2023/01/26 13:52:50;;;;;;;;;;;6.90;99.90;;;;;;4964699;28;19926;-72
2023/01/26 13:55:22;;;;;;;;;;;6.90;99.90;;;;;;4964934;28;19949;-73
2023/01/26 13:57:49;;;;;;;;;;;7.00;99.90;;;;;;4962652;28;20013;-73
2023/01/26 14:00:18;;;;;;;;;;;7.00;99.90;;;;;;4966669;28;19934;-72
2023/01/26 14:02:48;;;;;;;;;;;7.00;99.90;;;;;;4965734;28;19969;-73
2023/01/26 14:05:22;;;;;;;;;;;7.00;99.90;;;;;;4968411;28;19933;-73
2023/01/26 14:07:49;;;;;;;;;;;7.00;99.90;;;;;;4964021;28;19930;-73
2023/01/26 14:10:18;;;;;;;;;;;7.00;99.90;;;;;;4981626;28;19933;-72
2023/01/26 14:12:46;;;;;;;;;;;7.00;99.90;;;;;;4961713;28;20293;-73
2023/01/26 14:15:22;;;;;;;;;;;7.00;99.90;;;;;;4976171;28;20309;-73
2023/01/26 14:17:50;;;;;;;;;;;7.00;99.90;;;;;;4965700;28;20262;-71
2023/01/26 14:20:18;;;;;;;;;;;7.00;99.90;;;;;;4969115;28;19926;-72
2023/01/26 14:22:47;;;;;;;;;;;7.00;99.90;;;;;;4965250;28;19926;-73
2023/01/26 14:25:19;;;;;;;;;;;7.00;99.90;;;;;;4962986;28;20005;-72
2023/01/26 14:27:50;;;;;;;;;;;7.00;99.90;;;;;;4963286;28;20400;-71
2023/01/26 14:30:24;;;;;;;;;;;7.00;99.90;;;;;;4965993;28;19926;-72
2023/01/26 14:32:54;;;;;;;;;;;7.00;99.90;;;;;;4968204;28;20016;-75
2023/01/26 14:35:25;;;;;;;;;;;6.90;99.90;;;;;;4982014;28;20027;-73
2023/01/26 14:38:05;;;;;;;;;;;7.00;99.90;;;;;;4967882;28;19931;-73
2023/01/26 14:40:32;;;;;;;;;;;6.90;99.90;;;;;;4968553;28;19926;-71
2023/01/26 14:42:59;;;;;;;;;;;6.90;99.90;;;;;;4970404;28;20389;-72
2023/01/26 14:45:30;;;;;;;;;;;6.90;99.90;;;;;;4966745;28;19927;-71
2023/01/26 14:47:59;;;;;;;;;;;6.90;99.90;;;;;;4964379;28;19926;-71
2023/01/26 14:50:27;;;;;;;;;;;6.80;99.90;;;;;;4981908;28;19926;-71
2023/01/26 14:52:53;;;;;;;;;;;6.90;99.90;;;;;;4964417;28;19937;-71
2023/01/26 14:55:22;;;;;;;;;;;6.90;99.90;;;;;;4979790;28;19927;-72
2023/01/26 14:57:50;;;;;;;;;;;6.90;99.90;;;;;;4988002;28;19930;-70
2023/01/26 15:00:22;;;;;;;;;;;6.90;99.90;;;;;;4957210;28;20320;-71
2023/01/26 15:02:52;;;;;;;;;;;6.90;99.90;;;;;;4987556;28;19961;-71
2023/01/26 15:05:53;;;;;;;;;;;7.00;99.90;;;;;;4962369;28;20552;-72
2023/01/26 15:08:52;;;;;;;;;;;7.00;99.90;;;;;;4966389;28;20029;-71
2023/01/26 15:14:48;;;;;;;;;;;7.00;99.90;;;;;;4970752;28;19974;-70
2023/01/26 15:17:28;;;;;;;;;;;7.00;99.90;;;;;;4962916;28;21111;-70
2023/01/26 15:19:56;;;;;;;;;;;6.90;99.90;;;;;;4961159;28;19930;-69
2023/01/26 15:22:25;;;;;;;;;;;6.90;99.90;;;;;;5012956;28;19927;-69
2023/01/26 15:25:02;;;;;;;;;;;6.90;99.90;;;;;;5014813;28;19945;-71
2023/01/26 15:27:32;;;;;;;;;;;6.90;99.90;;;;;;4980396;28;19949;-71
2023/01/26 15:30:00;;;;;;;;;;;6.80;99.90;;;;;;4976510;28;20250;-71